Terminal Aerodrome Forecast
Issued by NWS Melbourne, FL

Home | Current Version | Previous Version | Text Only | Print | Product List | Glossary On
Versions: 1 2 3 4 5 6 7 8 9 10 11 12 13 14 15 16 17 18 19 20
525
FTUS42 KMLB 262338
TAFMLB
TAF
KMLB 262338Z 2700/2724 11008KT P6SM SKC
     FM270300 VRB03KT P6SM SKC
     FM271700 09011KT P6SM SKC
     FM272000 11014KT P6SM SKC=

USA.gov is the U.S. government's official web portal to all federal, state and local government web resources and services.